LEVT Airport Information

Runway Information
Runway 04 Length 11483 ft width 148 ft
Elevation 1651 ft Threshold 0 ft Heading 36
Runway 22 Length 11483 ft Width 148 ft
Elevation 1682 ft Threshold 0 ft Heading 216
Airport Frequencies
Type GND Name GND Frequency 121.8 MHZ
Type TWR Name TWR Frequency 118.45 MHZ
Airport Navaids
Type VOR-DME Name Vitoria Frequency 112900 KHZ
Type VOR-DME Name Vitoria Frequency 116600 KHZ
Airport Weather Information & NOTAM
ADDS - METARS form results

(1915 UTC 25 June 2018)
 
METAR text: LEVT 251900Z 02008KT 350V050 CAVOK 24/15 Q1017
Conditions at: LEVT (VITORIA , ES) observed 1900 UTC 25 June 2018
Temperature: 24.0°C (75°F)
Dewpoint: 15.0°C (59°F) [RH = 57%]
Pressure (altimeter): 30.03 inches Hg (1017.0 mb)
Winds: from the NNE (20 degrees) at 9 MPH (8 knots; 4.2 m/s)
Visibility: 6 or more miles (10+ km)
Ceiling: ceiling and visibility are OK
Clouds: unknown
Weather: no significant weather observed at this time

METAR text: LEVT 251830Z 02010KT CAVOK 25/15 Q1017
Conditions at: LEVT (VITORIA , ES) observed 1830 UTC 25 June 2018
Temperature: 25.0°C (77°F)
Dewpoint: 15.0°C (59°F) [RH = 54%]
Pressure (altimeter): 30.03 inches Hg (1017.0 mb)
Winds: from the NNE (20 degrees) at 12 MPH (10 knots; 5.2 m/s)
Visibility: 6 or more miles (10+ km)
Ceiling: ceiling and visibility are OK
Clouds: unknown
Weather: no significant weather observed at this time